sensor_id;sensor_type;location;lat;lon;timestamp;P1;durP1;ratioP1;P2;durP2;ratioP2
50350;SDS011;36250;48.740;22.174;2023-03-14T00:01:15;17.30;;;7.93;;
50350;SDS011;36250;48.740;22.174;2023-03-14T00:03:42;13.80;;;8.25;;
50350;SDS011;36250;48.740;22.174;2023-03-14T00:06:09;17.10;;;8.48;;
50350;SDS011;36250;48.740;22.174;2023-03-14T00:08:35;15.10;;;8.82;;
50350;SDS011;36250;48.740;22.174;2023-03-14T00:11:08;15.20;;;8.45;;
50350;SDS011;36250;48.740;22.174;2023-03-14T00:13:35;12.02;;;7.80;;
50350;SDS011;36250;48.740;22.174;2023-03-14T00:16:04;13.75;;;7.43;;
50350;SDS011;36250;48.740;22.174;2023-03-14T00:18:30;11.20;;;6.82;;
50350;SDS011;36250;48.740;22.174;2023-03-14T00:20:59;11.57;;;6.85;;
50350;SDS011;36250;48.740;22.174;2023-03-14T00:23:26;12.30;;;7.10;;
50350;SDS011;36250;48.740;22.174;2023-03-14T00:25:52;10.90;;;6.95;;
50350;SDS011;36250;48.740;22.174;2023-03-14T00:28:17;16.80;;;7.30;;
50350;SDS011;36250;48.740;22.174;2023-03-14T00:30:43;11.77;;;7.03;;
50350;SDS011;36250;48.740;22.174;2023-03-14T00:33:08;13.60;;;7.05;;
50350;SDS011;36250;48.740;22.174;2023-03-14T00:35:33;17.13;;;7.10;;
50350;SDS011;36250;48.740;22.174;2023-03-14T00:37:58;12.55;;;7.65;;
50350;SDS011;36250;48.740;22.174;2023-03-14T00:40:24;12.73;;;7.18;;
50350;SDS011;36250;48.740;22.174;2023-03-14T00:42:49;8.93;;;5.93;;
50350;SDS011;36250;48.740;22.174;2023-03-14T00:45:14;11.80;;;6.95;;
50350;SDS011;36250;48.740;22.174;2023-03-14T00:47:40;16.23;;;6.70;;
50350;SDS011;36250;48.740;22.174;2023-03-14T00:50:05;10.57;;;6.80;;
50350;SDS011;36250;48.740;22.174;2023-03-14T00:52:31;11.48;;;6.15;;
50350;SDS011;36250;48.740;22.174;2023-03-14T00:54:57;10.45;;;5.65;;
50350;SDS011;36250;48.740;22.174;2023-03-14T00:57:22;13.15;;;6.97;;
50350;SDS011;36250;48.740;22.174;2023-03-14T00:59:47;12.02;;;6.18;;
50350;SDS011;36250;48.740;22.174;2023-03-14T01:02:12;9.82;;;6.57;;
50350;SDS011;36250;48.740;22.174;2023-03-14T01:04:38;11.82;;;6.97;;
50350;SDS011;36250;48.740;22.174;2023-03-14T01:07:04;10.48;;;6.15;;
50350;SDS011;36250;48.740;22.174;2023-03-14T01:09:29;10.20;;;6.70;;
50350;SDS011;36250;48.740;22.174;2023-03-14T01:11:55;9.95;;;6.40;;
50350;SDS011;36250;48.740;22.174;2023-03-14T01:14:20;9.95;;;6.70;;
50350;SDS011;36250;48.740;22.174;2023-03-14T01:16:45;11.73;;;6.40;;
50350;SDS011;36250;48.740;22.174;2023-03-14T01:19:10;9.93;;;6.03;;
50350;SDS011;36250;48.740;22.174;2023-03-14T01:21:36;11.07;;;6.00;;
50350;SDS011;36250;48.740;22.174;2023-03-14T01:24:03;10.38;;;5.57;;
50350;SDS011;36250;48.740;22.174;2023-03-14T01:26:30;9.32;;;5.90;;
50350;SDS011;36250;48.740;22.174;2023-03-14T01:28:57;10.18;;;5.63;;
50350;SDS011;36250;48.740;22.174;2023-03-14T01:31:23;8.73;;;5.05;;
50350;SDS011;36250;48.740;22.174;2023-03-14T01:33:50;7.90;;;4.90;;
50350;SDS011;36250;48.740;22.174;2023-03-14T01:36:16;11.00;;;5.43;;
50350;SDS011;36250;48.740;22.174;2023-03-14T01:38:41;9.43;;;6.10;;
50350;SDS011;36250;48.740;22.174;2023-03-14T01:41:07;8.73;;;5.57;;
50350;SDS011;36250;48.740;22.174;2023-03-14T01:43:36;8.52;;;5.25;;
50350;SDS011;36250;48.740;22.174;2023-03-14T01:54:09;11.10;;;5.43;;
50350;SDS011;36250;48.740;22.174;2023-03-14T01:56:39;7.60;;;5.35;;
50350;SDS011;36250;48.740;22.174;2023-03-14T01:59:09;6.60;;;4.28;;
50350;SDS011;36250;48.740;22.174;2023-03-14T02:01:35;8.23;;;4.82;;
50350;SDS011;36250;48.740;22.174;2023-03-14T02:04:03;6.53;;;4.72;;
50350;SDS011;36250;48.740;22.174;2023-03-14T02:09:16;10.10;;;4.40;;
50350;SDS011;36250;48.740;22.174;2023-03-14T02:11:42;11.52;;;5.80;;
50350;SDS011;36250;48.740;22.174;2023-03-14T02:14:08;7.78;;;4.93;;
50350;SDS011;36250;48.740;22.174;2023-03-14T02:16:38;8.13;;;5.50;;
50350;SDS011;36250;48.740;22.174;2023-03-14T02:19:04;12.35;;;5.25;;
50350;SDS011;36250;48.740;22.174;2023-03-14T02:21:51;7.20;;;4.90;;
50350;SDS011;36250;48.740;22.174;2023-03-14T02:24:27;9.88;;;5.25;;
50350;SDS011;36250;48.740;22.174;2023-03-14T02:27:07;8.45;;;4.90;;
50350;SDS011;36250;48.740;22.174;2023-03-14T02:29:33;6.22;;;4.07;;
50350;SDS011;36250;48.740;22.174;2023-03-14T02:32:01;6.85;;;4.47;;
50350;SDS011;36250;48.740;22.174;2023-03-14T02:34:27;6.22;;;4.20;;
50350;SDS011;36250;48.740;22.174;2023-03-14T02:36:53;8.15;;;4.35;;
50350;SDS011;36250;48.740;22.174;2023-03-14T02:39:24;8.77;;;4.93;;
50350;SDS011;36250;48.740;22.174;2023-03-14T02:41:56;6.65;;;4.35;;
50350;SDS011;36250;48.740;22.174;2023-03-14T02:44:21;6.45;;;4.10;;
50350;SDS011;36250;48.740;22.174;2023-03-14T02:46:46;6.57;;;3.90;;
50350;SDS011;36250;48.740;22.174;2023-03-14T02:49:12;7.13;;;4.05;;
50350;SDS011;36250;48.740;22.174;2023-03-14T02:51:39;6.80;;;4.85;;
50350;SDS011;36250;48.740;22.174;2023-03-14T02:54:06;6.63;;;4.13;;
50350;SDS011;36250;48.740;22.174;2023-03-14T02:56:32;7.13;;;4.32;;
50350;SDS011;36250;48.740;22.174;2023-03-14T02:58:58;8.25;;;4.50;;
50350;SDS011;36250;48.740;22.174;2023-03-14T03:01:23;6.90;;;4.63;;
50350;SDS011;36250;48.740;22.174;2023-03-14T03:03:49;12.00;;;4.90;;
50350;SDS011;36250;48.740;22.174;2023-03-14T03:06:14;10.77;;;4.55;;
50350;SDS011;36250;48.740;22.174;2023-03-14T03:08:40;7.18;;;4.88;;
50350;SDS011;36250;48.740;22.174;2023-03-14T03:11:05;6.22;;;4.20;;
50350;SDS011;36250;48.740;22.174;2023-03-14T03:13:31;6.60;;;3.83;;
50350;SDS011;36250;48.740;22.174;2023-03-14T03:15:57;7.18;;;4.13;;
50350;SDS011;36250;48.740;22.174;2023-03-14T03:18:22;9.38;;;5.57;;
50350;SDS011;36250;48.740;22.174;2023-03-14T03:20:47;6.97;;;4.38;;
50350;SDS011;36250;48.740;22.174;2023-03-14T03:23:13;6.10;;;3.95;;
50350;SDS011;36250;48.740;22.174;2023-03-14T03:25:38;8.15;;;4.15;;
50350;SDS011;36250;48.740;22.174;2023-03-14T03:28:04;7.70;;;3.80;;
50350;SDS011;36250;48.740;22.174;2023-03-14T03:30:33;6.60;;;3.88;;
50350;SDS011;36250;48.740;22.174;2023-03-14T03:33:08;4.38;;;3.45;;
50350;SDS011;36250;48.740;22.174;2023-03-14T03:35:34;7.75;;;4.30;;
50350;SDS011;36250;48.740;22.174;2023-03-14T03:37:59;6.65;;;4.88;;
50350;SDS011;36250;48.740;22.174;2023-03-14T03:40:24;8.55;;;5.45;;
50350;SDS011;36250;48.740;22.174;2023-03-14T03:42:50;8.10;;;5.30;;
50350;SDS011;36250;48.740;22.174;2023-03-14T03:45:16;8.02;;;5.10;;
50350;SDS011;36250;48.740;22.174;2023-03-14T03:47:41;7.20;;;5.07;;
50350;SDS011;36250;48.740;22.174;2023-03-14T03:50:07;6.38;;;4.47;;
50350;SDS011;36250;48.740;22.174;2023-03-14T03:52:32;12.18;;;5.55;;
50350;SDS011;36250;48.740;22.174;2023-03-14T03:54:58;7.32;;;4.32;;
50350;SDS011;36250;48.740;22.174;2023-03-14T03:57:23;7.63;;;4.25;;
50350;SDS011;36250;48.740;22.174;2023-03-14T03:59:48;9.30;;;5.53;;
50350;SDS011;36250;48.740;22.174;2023-03-14T04:02:14;9.25;;;4.90;;
50350;SDS011;36250;48.740;22.174;2023-03-14T04:04:39;7.90;;;5.07;;
50350;SDS011;36250;48.740;22.174;2023-03-14T04:07:04;9.45;;;5.10;;
50350;SDS011;36250;48.740;22.174;2023-03-14T04:09:30;10.40;;;5.13;;
50350;SDS011;36250;48.740;22.174;2023-03-14T04:11:56;9.95;;;4.85;;
50350;SDS011;36250;48.740;22.174;2023-03-14T04:14:22;11.10;;;5.72;;
50350;SDS011;36250;48.740;22.174;2023-03-14T04:16:48;9.48;;;5.65;;
50350;SDS011;36250;48.740;22.174;2023-03-14T04:19:13;7.15;;;4.50;;
50350;SDS011;36250;48.740;22.174;2023-03-14T04:21:39;8.48;;;4.80;;
50350;SDS011;36250;48.740;22.174;2023-03-14T04:26:37;5.25;;;3.75;;
50350;SDS011;36250;48.740;22.174;2023-03-14T04:29:02;6.35;;;3.67;;
50350;SDS011;36250;48.740;22.174;2023-03-14T04:31:27;7.88;;;3.78;;
50350;SDS011;36250;48.740;22.174;2023-03-14T04:33:53;5.88;;;3.50;;
50350;SDS011;36250;48.740;22.174;2023-03-14T04:36:18;7.13;;;4.57;;
50350;SDS011;36250;48.740;22.174;2023-03-14T04:38:43;6.65;;;3.53;;
50350;SDS011;36250;48.740;22.174;2023-03-14T04:41:09;4.80;;;3.05;;
50350;SDS011;36250;48.740;22.174;2023-03-14T04:43:34;3.72;;;3.00;;
50350;SDS011;36250;48.740;22.174;2023-03-14T04:45:59;6.05;;;3.70;;
50350;SDS011;36250;48.740;22.174;2023-03-14T04:48:25;9.38;;;4.60;;
50350;SDS011;36250;48.740;22.174;2023-03-14T04:50:51;8.77;;;3.50;;
50350;SDS011;36250;48.740;22.174;2023-03-14T04:53:17;9.65;;;3.65;;
50350;SDS011;36250;48.740;22.174;2023-03-14T04:55:50;9.45;;;3.72;;
50350;SDS011;36250;48.740;22.174;2023-03-14T04:58:16;5.53;;;3.53;;
50350;SDS011;36250;48.740;22.174;2023-03-14T05:00:42;4.45;;;2.95;;
50350;SDS011;36250;48.740;22.174;2023-03-14T05:03:08;7.88;;;3.42;;
50350;SDS011;36250;48.740;22.174;2023-03-14T05:05:33;3.22;;;2.88;;
50350;SDS011;36250;48.740;22.174;2023-03-14T05:07:58;9.82;;;4.90;;
50350;SDS011;36250;48.740;22.174;2023-03-14T05:10:24;69.20;;;32.85;;
50350;SDS011;36250;48.740;22.174;2023-03-14T05:12:50;132.82;;;55.20;;
50350;SDS011;36250;48.740;22.174;2023-03-14T05:15:16;191.65;;;82.47;;
50350;SDS011;36250;48.740;22.174;2023-03-14T05:17:41;255.68;;;107.28;;
50350;SDS011;36250;48.740;22.174;2023-03-14T05:20:06;155.52;;;74.55;;
50350;SDS011;36250;48.740;22.174;2023-03-14T05:22:37;33.45;;;21.25;;
50350;SDS011;36250;48.740;22.174;2023-03-14T05:25:03;11.93;;;8.70;;
50350;SDS011;36250;48.740;22.174;2023-03-14T05:27:29;10.73;;;6.65;;
50350;SDS011;36250;48.740;22.174;2023-03-14T05:29:54;5.10;;;4.05;;
50350;SDS011;36250;48.740;22.174;2023-03-14T05:32:19;7.60;;;5.32;;
50350;SDS011;36250;48.740;22.174;2023-03-14T05:34:45;6.72;;;3.15;;
50350;SDS011;36250;48.740;22.174;2023-03-14T05:37:10;6.95;;;3.03;;
50350;SDS011;36250;48.740;22.174;2023-03-14T05:39:36;6.38;;;4.00;;
50350;SDS011;36250;48.740;22.174;2023-03-14T05:42:01;3.92;;;2.90;;
50350;SDS011;36250;48.740;22.174;2023-03-14T05:44:26;5.15;;;3.70;;
50350;SDS011;36250;48.740;22.174;2023-03-14T05:46:52;6.65;;;3.30;;
50350;SDS011;36250;48.740;22.174;2023-03-14T05:49:17;5.18;;;3.42;;
50350;SDS011;36250;48.740;22.174;2023-03-14T05:51:42;3.40;;;3.05;;
50350;SDS011;36250;48.740;22.174;2023-03-14T05:54:08;10.18;;;3.53;;
50350;SDS011;36250;48.740;22.174;2023-03-14T05:56:33;7.55;;;3.80;;
50350;SDS011;36250;48.740;22.174;2023-03-14T05:58:58;4.22;;;3.00;;
50350;SDS011;36250;48.740;22.174;2023-03-14T06:01:26;10.02;;;2.95;;
50350;SDS011;36250;48.740;22.174;2023-03-14T06:03:51;7.32;;;3.45;;
50350;SDS011;36250;48.740;22.174;2023-03-14T06:06:17;6.68;;;3.42;;
50350;SDS011;36250;48.740;22.174;2023-03-14T06:08:42;16.27;;;4.93;;
50350;SDS011;36250;48.740;22.174;2023-03-14T06:11:07;8.65;;;3.90;;
50350;SDS011;36250;48.740;22.174;2023-03-14T06:13:34;13.43;;;3.33;;
50350;SDS011;36250;48.740;22.174;2023-03-14T06:15:59;5.30;;;3.38;;
50350;SDS011;36250;48.740;22.174;2023-03-14T06:18:24;6.35;;;3.50;;
50350;SDS011;36250;48.740;22.174;2023-03-14T06:20:53;4.63;;;3.15;;
50350;SDS011;36250;48.740;22.174;2023-03-14T06:23:19;6.05;;;3.30;;
50350;SDS011;36250;48.740;22.174;2023-03-14T06:25:45;6.45;;;2.95;;
50350;SDS011;36250;48.740;22.174;2023-03-14T06:28:10;8.38;;;3.83;;
50350;SDS011;36250;48.740;22.174;2023-03-14T06:30:35;5.07;;;3.05;;
50350;SDS011;36250;48.740;22.174;2023-03-14T06:33:00;6.95;;;3.13;;
50350;SDS011;36250;48.740;22.174;2023-03-14T06:35:26;4.85;;;3.20;;
50350;SDS011;36250;48.740;22.174;2023-03-14T06:37:51;4.18;;;2.83;;
50350;SDS011;36250;48.740;22.174;2023-03-14T06:40:17;5.47;;;3.03;;
50350;SDS011;36250;48.740;22.174;2023-03-14T06:42:43;5.63;;;3.03;;
50350;SDS011;36250;48.740;22.174;2023-03-14T06:45:09;4.85;;;3.20;;
50350;SDS011;36250;48.740;22.174;2023-03-14T06:47:35;6.22;;;3.67;;
50350;SDS011;36250;48.740;22.174;2023-03-14T06:50:01;6.32;;;3.85;;
50350;SDS011;36250;48.740;22.174;2023-03-14T06:52:26;6.10;;;3.03;;
50350;SDS011;36250;48.740;22.174;2023-03-14T06:54:51;6.05;;;4.05;;
50350;SDS011;36250;48.740;22.174;2023-03-14T06:57:17;9.60;;;3.67;;
50350;SDS011;36250;48.740;22.174;2023-03-14T06:59:42;5.03;;;3.47;;
50350;SDS011;36250;48.740;22.174;2023-03-14T07:02:10;6.47;;;3.67;;
50350;SDS011;36250;48.740;22.174;2023-03-14T07:04:37;5.93;;;3.40;;
50350;SDS011;36250;48.740;22.174;2023-03-14T07:07:02;8.57;;;5.00;;
50350;SDS011;36250;48.740;22.174;2023-03-14T07:09:28;6.47;;;4.80;;
50350;SDS011;36250;48.740;22.174;2023-03-14T07:11:53;7.65;;;4.10;;
50350;SDS011;36250;48.740;22.174;2023-03-14T07:14:18;5.85;;;3.55;;
50350;SDS011;36250;48.740;22.174;2023-03-14T07:16:44;7.65;;;4.18;;
50350;SDS011;36250;48.740;22.174;2023-03-14T07:19:10;8.82;;;4.47;;
50350;SDS011;36250;48.740;22.174;2023-03-14T07:21:35;6.70;;;3.67;;
50350;SDS011;36250;48.740;22.174;2023-03-14T07:24:00;5.85;;;3.80;;
50350;SDS011;36250;48.740;22.174;2023-03-14T07:26:26;5.78;;;3.70;;
50350;SDS011;36250;48.740;22.174;2023-03-14T07:28:51;6.80;;;4.05;;
50350;SDS011;36250;48.740;22.174;2023-03-14T07:31:17;7.93;;;3.53;;
50350;SDS011;36250;48.740;22.174;2023-03-14T07:33:42;4.25;;;3.10;;
50350;SDS011;36250;48.740;22.174;2023-03-14T07:36:07;6.57;;;3.80;;
50350;SDS011;36250;48.740;22.174;2023-03-14T07:38:33;5.28;;;3.50;;
50350;SDS011;36250;48.740;22.174;2023-03-14T07:41:02;5.53;;;3.83;;
50350;SDS011;36250;48.740;22.174;2023-03-14T07:43:29;5.10;;;3.08;;
50350;SDS011;36250;48.740;22.174;2023-03-14T07:45:55;4.95;;;3.63;;
50350;SDS011;36250;48.740;22.174;2023-03-14T07:48:20;7.10;;;4.60;;
50350;SDS011;36250;48.740;22.174;2023-03-14T07:50:50;6.20;;;3.70;;
50350;SDS011;36250;48.740;22.174;2023-03-14T07:53:16;53.45;;;27.98;;
50350;SDS011;36250;48.740;22.174;2023-03-14T07:55:41;25.52;;;17.23;;
50350;SDS011;36250;48.740;22.174;2023-03-14T07:58:07;9.07;;;6.68;;
50350;SDS011;36250;48.740;22.174;2023-03-14T08:00:32;14.82;;;7.28;;
50350;SDS011;36250;48.740;22.174;2023-03-14T08:02:57;8.40;;;4.75;;
50350;SDS011;36250;48.740;22.174;2023-03-14T08:05:23;8.77;;;4.35;;
50350;SDS011;36250;48.740;22.174;2023-03-14T08:07:48;6.22;;;4.38;;
50350;SDS011;36250;48.740;22.174;2023-03-14T08:10:14;7.03;;;5.07;;
50350;SDS011;36250;48.740;22.174;2023-03-14T08:12:46;6.10;;;4.25;;
50350;SDS011;36250;48.740;22.174;2023-03-14T08:15:11;8.02;;;4.43;;
50350;SDS011;36250;48.740;22.174;2023-03-14T08:17:36;10.10;;;4.65;;
50350;SDS011;36250;48.740;22.174;2023-03-14T08:20:02;8.45;;;4.60;;
50350;SDS011;36250;48.740;22.174;2023-03-14T08:22:31;4.85;;;3.63;;
50350;SDS011;36250;48.740;22.174;2023-03-14T08:24:56;5.72;;;3.72;;
50350;SDS011;36250;48.740;22.174;2023-03-14T08:27:22;8.57;;;5.95;;
50350;SDS011;36250;48.740;22.174;2023-03-14T08:29:47;9.25;;;6.18;;
50350;SDS011;36250;48.740;22.174;2023-03-14T08:32:12;7.57;;;4.47;;
50350;SDS011;36250;48.740;22.174;2023-03-14T08:34:38;8.18;;;5.00;;
50350;SDS011;36250;48.740;22.174;2023-03-14T08:37:04;5.68;;;3.72;;
50350;SDS011;36250;48.740;22.174;2023-03-14T08:39:30;8.15;;;4.22;;
50350;SDS011;36250;48.740;22.174;2023-03-14T08:41:55;6.40;;;4.70;;
50350;SDS011;36250;48.740;22.174;2023-03-14T08:44:21;9.88;;;5.25;;
50350;SDS011;36250;48.740;22.174;2023-03-14T08:46:46;11.60;;;5.18;;
50350;SDS011;36250;48.740;22.174;2023-03-14T08:49:11;8.13;;;4.50;;
50350;SDS011;36250;48.740;22.174;2023-03-14T08:51:37;7.80;;;4.30;;
50350;SDS011;36250;48.740;22.174;2023-03-14T08:54:02;7.40;;;4.40;;
50350;SDS011;36250;48.740;22.174;2023-03-14T08:56:27;10.02;;;4.32;;
50350;SDS011;36250;48.740;22.174;2023-03-14T08:58:53;7.63;;;5.00;;
50350;SDS011;36250;48.740;22.174;2023-03-14T09:01:18;7.95;;;4.07;;
50350;SDS011;36250;48.740;22.174;2023-03-14T09:03:44;6.90;;;4.30;;
50350;SDS011;36250;48.740;22.174;2023-03-14T09:06:11;8.63;;;4.88;;
50350;SDS011;36250;48.740;22.174;2023-03-14T09:08:36;7.32;;;4.82;;
50350;SDS011;36250;48.740;22.174;2023-03-14T09:11:02;16.45;;;4.72;;
50350;SDS011;36250;48.740;22.174;2023-03-14T09:13:27;7.60;;;3.90;;
50350;SDS011;36250;48.740;22.174;2023-03-14T09:15:53;9.45;;;4.47;;
50350;SDS011;36250;48.740;22.174;2023-03-14T09:18:20;7.90;;;3.95;;
50350;SDS011;36250;48.740;22.174;2023-03-14T09:20:47;6.45;;;4.47;;
50350;SDS011;36250;48.740;22.174;2023-03-14T09:23:13;10.60;;;4.25;;
50350;SDS011;36250;48.740;22.174;2023-03-14T09:25:39;6.65;;;4.10;;
50350;SDS011;36250;48.740;22.174;2023-03-14T09:28:04;9.18;;;4.13;;
50350;SDS011;36250;48.740;22.174;2023-03-14T09:30:29;8.32;;;4.88;;
50350;SDS011;36250;48.740;22.174;2023-03-14T09:32:55;7.38;;;4.95;;
50350;SDS011;36250;48.740;22.174;2023-03-14T09:35:21;6.13;;;4.03;;
50350;SDS011;36250;48.740;22.174;2023-03-14T09:37:47;8.73;;;3.85;;
50350;SDS011;36250;48.740;22.174;2023-03-14T09:40:13;7.40;;;4.13;;
50350;SDS011;36250;48.740;22.174;2023-03-14T09:42:44;6.30;;;4.03;;
50350;SDS011;36250;48.740;22.174;2023-03-14T09:45:12;6.85;;;4.20;;
50350;SDS011;36250;48.740;22.174;2023-03-14T09:47:50;6.60;;;3.90;;
50350;SDS011;36250;48.740;22.174;2023-03-14T09:50:16;5.38;;;3.97;;
50350;SDS011;36250;48.740;22.174;2023-03-14T09:52:42;6.65;;;3.67;;
50350;SDS011;36250;48.740;22.174;2023-03-14T09:55:16;6.90;;;3.90;;
50350;SDS011;36250;48.740;22.174;2023-03-14T09:57:45;4.82;;;3.72;;
50350;SDS011;36250;48.740;22.174;2023-03-14T10:02:51;14.73;;;6.38;;
50350;SDS011;36250;48.740;22.174;2023-03-14T10:05:20;9.52;;;4.00;;
50350;SDS011;36250;48.740;22.174;2023-03-14T10:07:48;7.75;;;4.25;;
50350;SDS011;36250;48.740;22.174;2023-03-14T10:10:16;6.10;;;3.90;;
50350;SDS011;36250;48.740;22.174;2023-03-14T10:12:47;7.68;;;4.38;;
50350;SDS011;36250;48.740;22.174;2023-03-14T10:15:32;6.00;;;4.38;;
50350;SDS011;36250;48.740;22.174;2023-03-14T10:17:59;9.75;;;4.38;;
50350;SDS011;36250;48.740;22.174;2023-03-14T10:23:03;9.38;;;4.47;;
50350;SDS011;36250;48.740;22.174;2023-03-14T10:25:33;8.48;;;4.97;;
50350;SDS011;36250;48.740;22.174;2023-03-14T10:28:00;9.30;;;5.18;;
50350;SDS011;36250;48.740;22.174;2023-03-14T10:30:30;7.28;;;4.93;;
50350;SDS011;36250;48.740;22.174;2023-03-14T10:33:07;7.85;;;4.55;;
50350;SDS011;36250;48.740;22.174;2023-03-14T10:35:37;6.72;;;4.40;;
50350;SDS011;36250;48.740;22.174;2023-03-14T10:38:03;7.68;;;5.00;;
50350;SDS011;36250;48.740;22.174;2023-03-14T10:40:33;7.97;;;6.22;;
50350;SDS011;36250;48.740;22.174;2023-03-14T10:43:03;6.47;;;4.68;;
50350;SDS011;36250;48.740;22.174;2023-03-14T10:45:41;7.88;;;4.53;;
50350;SDS011;36250;48.740;22.174;2023-03-14T10:50:50;7.78;;;4.55;;
50350;SDS011;36250;48.740;22.174;2023-03-14T10:53:22;11.88;;;4.97;;
50350;SDS011;36250;48.740;22.174;2023-03-14T10:55:49;7.53;;;4.35;;
50350;SDS011;36250;48.740;22.174;2023-03-14T10:58:25;9.90;;;4.55;;
50350;SDS011;36250;48.740;22.174;2023-03-14T11:00:54;12.25;;;4.80;;
50350;SDS011;36250;48.740;22.174;2023-03-14T11:03:26;6.57;;;4.35;;
50350;SDS011;36250;48.740;22.174;2023-03-14T11:06:44;8.82;;;4.82;;
50350;SDS011;36250;48.740;22.174;2023-03-14T11:08:53;6.43;;;4.30;;
50350;SDS011;36250;48.740;22.174;2023-03-14T11:11:30;6.68;;;4.55;;
50350;SDS011;36250;48.740;22.174;2023-03-14T11:19:24;7.60;;;5.13;;
50350;SDS011;36250;48.740;22.174;2023-03-14T11:22:05;6.32;;;5.13;;
50350;SDS011;36250;48.740;22.174;2023-03-14T11:24:53;7.47;;;5.15;;
50350;SDS011;36250;48.740;22.174;2023-03-14T11:27:48;8.95;;;5.05;;
50350;SDS011;36250;48.740;22.174;2023-03-14T11:33:38;8.23;;;4.65;;
50350;SDS011;36250;48.740;22.174;2023-03-14T11:36:10;8.05;;;5.32;;
50350;SDS011;36250;48.740;22.174;2023-03-14T11:41:16;10.43;;;5.50;;
50350;SDS011;36250;48.740;22.174;2023-03-14T11:44:08;7.93;;;5.00;;
50350;SDS011;36250;48.740;22.174;2023-03-14T11:46:42;12.98;;;5.20;;
50350;SDS011;36250;48.740;22.174;2023-03-14T11:49:20;11.00;;;7.07;;
50350;SDS011;36250;48.740;22.174;2023-03-14T11:51:56;10.52;;;5.88;;
50350;SDS011;36250;48.740;22.174;2023-03-14T11:54:46;8.35;;;5.03;;
50350;SDS011;36250;48.740;22.174;2023-03-14T11:57:29;10.90;;;5.20;;
50350;SDS011;36250;48.740;22.174;2023-03-14T12:00:00;11.60;;;5.53;;
50350;SDS011;36250;48.740;22.174;2023-03-14T12:05:45;10.25;;;4.75;;
50350;SDS011;36250;48.740;22.174;2023-03-14T12:08:22;8.45;;;5.13;;
50350;SDS011;36250;48.740;22.174;2023-03-14T12:11:03;14.60;;;5.05;;
50350;SDS011;36250;48.740;22.174;2023-03-14T12:13:36;10.43;;;5.15;;
50350;SDS011;36250;48.740;22.174;2023-03-14T12:16:07;7.57;;;4.90;;
50350;SDS011;36250;48.740;22.174;2023-03-14T12:18:56;7.72;;;5.10;;
50350;SDS011;36250;48.740;22.174;2023-03-14T12:21:22;9.52;;;6.05;;
50350;SDS011;36250;48.740;22.174;2023-03-14T12:23:50;8.00;;;4.82;;
50350;SDS011;36250;48.740;22.174;2023-03-14T12:26:24;6.95;;;4.78;;
50350;SDS011;36250;48.740;22.174;2023-03-14T12:41:44;10.25;;;5.38;;
50350;SDS011;36250;48.740;22.174;2023-03-14T12:46:56;7.03;;;5.25;;
50350;SDS011;36250;48.740;22.174;2023-03-14T12:49:29;6.60;;;4.85;;
50350;SDS011;36250;48.740;22.174;2023-03-14T12:51:59;7.55;;;4.63;;
50350;SDS011;36250;48.740;22.174;2023-03-14T13:00:21;6.18;;;4.60;;
50350;SDS011;36250;48.740;22.174;2023-03-14T13:02:49;6.10;;;5.10;;
50350;SDS011;36250;48.740;22.174;2023-03-14T13:05:19;6.18;;;4.95;;
50350;SDS011;36250;48.740;22.174;2023-03-14T13:12:51;6.95;;;4.78;;
50350;SDS011;36250;48.740;22.174;2023-03-14T13:15:31;5.68;;;4.30;;
50350;SDS011;36250;48.740;22.174;2023-03-14T13:20:44;4.22;;;3.80;;
50350;SDS011;36250;48.740;22.174;2023-03-14T13:23:21;6.45;;;4.57;;
50350;SDS011;36250;48.740;22.174;2023-03-14T13:25:51;6.25;;;4.13;;
50350;SDS011;36250;48.740;22.174;2023-03-14T13:28:17;6.30;;;4.35;;
50350;SDS011;36250;48.740;22.174;2023-03-14T13:30:44;8.13;;;4.18;;
50350;SDS011;36250;48.740;22.174;2023-03-14T13:33:12;4.93;;;4.15;;
50350;SDS011;36250;48.740;22.174;2023-03-14T13:35:49;4.13;;;3.63;;
50350;SDS011;36250;48.740;22.174;2023-03-14T13:38:21;4.68;;;3.35;;
50350;SDS011;36250;48.740;22.174;2023-03-14T13:40:49;6.05;;;3.72;;
50350;SDS011;36250;48.740;22.174;2023-03-14T13:43:29;4.38;;;3.92;;
50350;SDS011;36250;48.740;22.174;2023-03-14T13:46:04;6.22;;;4.28;;
50350;SDS011;36250;48.740;22.174;2023-03-14T13:48:32;10.13;;;4.00;;
50350;SDS011;36250;48.740;22.174;2023-03-14T13:53:47;5.05;;;4.00;;
50350;SDS011;36250;48.740;22.174;2023-03-14T13:56:19;7.80;;;4.25;;
50350;SDS011;36250;48.740;22.174;2023-03-14T13:58:49;6.78;;;4.30;;
50350;SDS011;36250;48.740;22.174;2023-03-14T14:01:19;4.85;;;4.00;;
50350;SDS011;36250;48.740;22.174;2023-03-14T14:03:49;9.75;;;4.15;;
50350;SDS011;36250;48.740;22.174;2023-03-14T14:06:23;5.72;;;3.97;;
50350;SDS011;36250;48.740;22.174;2023-03-14T14:08:51;4.75;;;3.63;;
50350;SDS011;36250;48.740;22.174;2023-03-14T14:14:00;7.03;;;4.15;;
50350;SDS011;36250;48.740;22.174;2023-03-14T14:16:26;8.80;;;4.40;;
50350;SDS011;36250;48.740;22.174;2023-03-14T14:18:54;6.47;;;4.40;;
50350;SDS011;36250;48.740;22.174;2023-03-14T14:21:21;11.80;;;4.72;;
50350;SDS011;36250;48.740;22.174;2023-03-14T14:23:47;6.70;;;4.93;;
50350;SDS011;36250;48.740;22.174;2023-03-14T14:26:14;6.60;;;4.57;;
50350;SDS011;36250;48.740;22.174;2023-03-14T14:28:42;8.15;;;5.25;;
50350;SDS011;36250;48.740;22.174;2023-03-14T14:36:21;12.93;;;7.25;;
50350;SDS011;36250;48.740;22.174;2023-03-14T14:38:50;10.73;;;5.82;;
50350;SDS011;36250;48.740;22.174;2023-03-14T14:41:16;8.63;;;4.22;;
50350;SDS011;36250;48.740;22.174;2023-03-14T14:43:42;11.45;;;4.15;;
50350;SDS011;36250;48.740;22.174;2023-03-14T14:46:08;9.73;;;4.18;;
50350;SDS011;36250;48.740;22.174;2023-03-14T14:48:37;12.70;;;5.25;;
50350;SDS011;36250;48.740;22.174;2023-03-14T14:51:05;8.52;;;4.85;;
50350;SDS011;36250;48.740;22.174;2023-03-14T14:56:04;8.82;;;4.45;;
50350;SDS011;36250;48.740;22.174;2023-03-14T14:58:49;6.70;;;4.97;;
50350;SDS011;36250;48.740;22.174;2023-03-14T15:01:16;11.00;;;6.50;;
50350;SDS011;36250;48.740;22.174;2023-03-14T15:03:48;13.18;;;10.02;;
50350;SDS011;36250;48.740;22.174;2023-03-14T15:06:17;13.55;;;8.55;;
50350;SDS011;36250;48.740;22.174;2023-03-14T15:08:43;17.35;;;8.40;;
50350;SDS011;36250;48.740;22.174;2023-03-14T15:11:14;19.77;;;9.75;;
50350;SDS011;36250;48.740;22.174;2023-03-14T15:13:42;13.45;;;9.38;;
50350;SDS011;36250;48.740;22.174;2023-03-14T15:16:10;18.65;;;12.32;;
50350;SDS011;36250;48.740;22.174;2023-03-14T15:18:36;18.92;;;13.07;;
50350;SDS011;36250;48.740;22.174;2023-03-14T15:21:02;12.73;;;9.70;;
50350;SDS011;36250;48.740;22.174;2023-03-14T15:23:27;12.77;;;6.15;;
50350;SDS011;36250;48.740;22.174;2023-03-14T15:25:53;8.73;;;6.43;;
50350;SDS011;36250;48.740;22.174;2023-03-14T15:28:22;9.40;;;5.82;;
50350;SDS011;36250;48.740;22.174;2023-03-14T15:30:50;8.38;;;5.82;;
50350;SDS011;36250;48.740;22.174;2023-03-14T15:33:18;8.13;;;5.93;;
50350;SDS011;36250;48.740;22.174;2023-03-14T15:35:43;9.57;;;4.57;;
50350;SDS011;36250;48.740;22.174;2023-03-14T15:38:13;9.77;;;4.45;;
50350;SDS011;36250;48.740;22.174;2023-03-14T15:40:46;7.10;;;5.03;;
50350;SDS011;36250;48.740;22.174;2023-03-14T15:43:12;8.10;;;4.50;;
50350;SDS011;36250;48.740;22.174;2023-03-14T15:45:37;6.88;;;4.75;;
50350;SDS011;36250;48.740;22.174;2023-03-14T15:48:03;12.60;;;6.20;;
50350;SDS011;36250;48.740;22.174;2023-03-14T15:50:29;21.00;;;13.50;;
50350;SDS011;36250;48.740;22.174;2023-03-14T15:52:54;8.70;;;5.40;;